Time;durP1;ratioP1;P1;durP2;ratioP2;P2;SDS_P1;SDS_P2;PMS_P1;PMS_P2;Temp;Humidity;BMP_temperature;BMP_pressure;BME280_temperature;BME280_humidity;BME280_pressure;Samples;Min_cycle;Max_cycle;Signal;HPM_P1;HPM_P2
2023/05/18 00:01:52;;;;;;;7.07;5.37;;;;;;;6.90;100.00;102762.09;5018603;28;20437;-39
2023/05/18 00:04:22;;;;;;;5.40;4.00;;;;;;;6.86;100.00;102758.03;5018031;28;20521;-39
2023/05/18 00:06:55;;;;;;;5.77;4.30;;;;;;;6.83;100.00;102755.63;5018104;28;20429;-39
2023/05/18 00:09:24;;;;;;;10.93;5.03;;;;;;;6.85;100.00;102768.75;5016891;28;20753;-39
2023/05/18 00:11:54;;;;;;;6.50;4.07;;;;;;;6.78;100.00;102768.38;5017989;28;20459;-39
2023/05/18 00:14:26;;;;;;;7.63;4.63;;;;;;;6.75;100.00;102767.81;5017092;28;20473;-39
2023/05/18 00:16:54;;;;;;;8.40;4.30;;;;;;;6.72;100.00;102774.19;5016584;28;20710;-39
2023/05/18 00:19:23;;;;;;;7.93;4.13;;;;;;;6.74;100.00;102771.44;5017461;28;20629;-39
2023/05/18 00:21:54;;;;;;;9.17;4.20;;;;;;;6.74;100.00;102774.06;5017914;28;20441;-40
2023/05/18 00:24:23;;;;;;;14.07;4.60;;;;;;;6.73;100.00;102775.03;5017190;28;20440;-40
2023/05/18 00:26:51;;;;;;;11.30;4.47;;;;;;;6.69;100.00;102772.63;5016983;28;20429;-39
2023/05/18 00:29:21;;;;;;;6.00;4.83;;;;;;;6.67;100.00;102774.56;5016527;28;20825;-40
2023/05/18 00:31:49;;;;;;;14.40;5.67;;;;;;;6.65;100.00;102789.75;5017578;28;21002;-39
2023/05/18 00:34:20;;;;;;;8.10;3.80;;;;;;;6.68;100.00;102788.66;5017909;28;20465;-40
2023/05/18 00:36:48;;;;;;;9.30;4.33;;;;;;;6.68;100.00;102783.38;5017337;28;20529;-39
2023/05/18 00:39:16;;;;;;;11.60;4.03;;;;;;;6.65;100.00;102786.25;5017350;28;20461;-39
2023/05/18 00:41:44;;;;;;;17.07;4.93;;;;;;;6.62;100.00;102781.19;5011136;28;20478;-39
2023/05/18 00:44:12;;;;;;;5.43;4.47;;;;;;;6.60;100.00;102780.50;4992852;28;20446;-39
2023/05/18 00:46:43;;;;;;;11.20;5.00;;;;;;;6.59;100.00;102784.09;4996366;28;20430;-39
2023/05/18 00:49:11;;;;;;;6.07;4.40;;;;;;;6.57;100.00;102778.91;4996954;28;20560;-39
2023/05/18 00:51:41;;;;;;;5.03;4.30;;;;;;;6.53;100.00;102782.78;4998681;28;20437;-41
2023/05/18 00:54:09;;;;;;;11.30;4.20;;;;;;;6.57;100.00;102770.13;4997860;28;20568;-39
2023/05/18 00:56:40;;;;;;;10.10;4.70;;;;;;;6.56;100.00;102774.59;4998102;28;20426;-40
2023/05/18 00:59:10;;;;;;;10.20;4.10;;;;;;;6.59;100.00;102782.28;4996468;28;20465;-39
2023/05/18 01:01:42;;;;;;;7.33;4.03;;;;;;;6.61;100.00;102790.97;4997305;28;20955;-39
2023/05/18 01:04:13;;;;;;;9.40;4.37;;;;;;;6.63;100.00;102785.56;4997348;28;20423;-41
2023/05/18 01:06:46;;;;;;;5.50;3.97;;;;;;;6.62;100.00;102782.06;4997574;28;20488;-40
2023/05/18 01:09:15;;;;;;;5.70;4.30;;;;;;;6.65;100.00;102789.75;4996060;28;20454;-39
2023/05/18 01:11:55;;;;;;;15.17;4.43;;;;;;;6.67;100.00;102793.13;4997708;28;20456;-40
2023/05/18 01:14:28;;;;;;;8.20;4.40;;;;;;;6.70;100.00;102794.69;4996299;28;20485;-39
2023/05/18 01:17:09;;;;;;;15.23;4.93;;;;;;;6.76;100.00;102793.34;4997046;28;20410;-39
2023/05/18 01:20:09;;;;;;;9.30;4.70;;;;;;;6.81;100.00;102797.31;4996228;28;20418;-40
2023/05/18 01:22:46;;;;;;;8.73;4.47;;;;;;;6.79;100.00;102793.97;4993594;28;20465;-39
2023/05/18 01:25:22;;;;;;;10.40;5.27;;;;;;;6.79;100.00;102790.44;4996482;28;20434;-39
2023/05/18 01:27:54;;;;;;;8.17;4.33;;;;;;;6.86;100.00;102792.50;5014320;28;20461;-39
2023/05/18 01:30:23;;;;;;;6.37;3.80;;;;;;;6.93;100.00;102798.19;5016195;28;20429;-39
2023/05/18 01:32:51;;;;;;;9.43;5.13;;;;;;;6.99;100.00;102781.78;5014831;28;20469;-39
2023/05/18 01:35:20;;;;;;;10.63;4.93;;;;;;;7.02;100.00;102781.50;5016258;28;20483;-41
2023/05/18 01:37:48;;;;;;;6.03;3.97;;;;;;;7.01;100.00;102783.31;5015719;28;20468;-39
2023/05/18 01:40:16;;;;;;;11.10;4.30;;;;;;;7.00;100.00;102783.44;5017839;28;20425;-39
2023/05/18 01:42:52;;;;;;;9.90;4.70;;;;;;;6.93;100.00;102793.69;5015940;28;20445;-40
2023/05/18 01:45:27;;;;;;;8.90;4.43;;;;;;;6.94;100.00;102795.38;5017381;28;20443;-41
2023/05/18 01:48:02;;;;;;;6.83;3.43;;;;;;;6.95;100.00;102804.19;5016062;28;20468;-41
2023/05/18 01:50:36;;;;;;;10.20;4.23;;;;;;;6.95;100.00;102804.19;5015672;28;20437;-39
2023/05/18 01:53:11;;;;;;;11.10;3.60;;;;;;;6.93;100.00;102804.28;5016330;28;20842;-39
2023/05/18 01:55:40;;;;;;;13.73;4.63;;;;;;;6.96;100.00;102808.53;5015794;28;20834;-39
2023/05/18 01:58:12;;;;;;;9.33;4.00;;;;;;;6.91;100.00;102810.69;5015142;28;20457;-41
2023/05/18 02:00:41;;;;;;;13.60;4.80;;;;;;;6.89;100.00;102812.63;5015164;28;20441;-39
2023/05/18 02:03:12;;;;;;;10.03;3.37;;;;;;;6.90;100.00;102809.84;5015975;28;20432;-41
2023/05/18 02:05:40;;;;;;;7.47;3.17;;;;;;;6.92;100.00;102812.38;5015742;28;20425;-39
2023/05/18 02:08:08;;;;;;;9.27;4.20;;;;;;;6.93;100.00;102814.91;5015869;28;20469;-40
2023/05/18 02:10:36;;;;;;;11.27;4.67;;;;;;;7.01;100.00;102807.19;5016659;28;20469;-39
2023/05/18 02:13:04;;;;;;;6.80;4.03;;;;;;;6.93;100.00;102809.59;5015977;28;20436;-41
2023/05/18 02:15:32;;;;;;;5.10;3.80;;;;;;;6.92;100.00;102807.94;5016192;28;21001;-40
2023/05/18 02:18:07;;;;;;;6.60;4.70;;;;;;;6.94;100.00;102808.66;5015584;28;20891;-39
2023/05/18 02:20:37;;;;;;;9.00;4.43;;;;;;;6.95;100.00;102802.38;5016194;28;20413;-39
2023/05/18 02:23:05;;;;;;;5.03;3.90;;;;;;;7.04;100.00;102812.25;5015066;28;20456;-41
2023/05/18 02:25:33;;;;;;;10.77;4.53;;;;;;;7.07;100.00;102812.00;5015578;28;20811;-41
2023/05/18 02:28:01;;;;;;;7.07;3.40;;;;;;;7.11;100.00;102813.44;5014356;28;20461;-39
2023/05/18 02:30:32;;;;;;;4.90;3.20;;;;;;;7.08;100.00;102812.81;5015584;28;20444;-40
2023/05/18 02:33:00;;;;;;;12.50;3.63;;;;;;;7.06;100.00;102810.31;5015686;28;20429;-39
2023/05/18 02:35:30;;;;;;;6.70;4.40;;;;;;;7.15;100.00;102812.22;5016002;28;20552;-39
2023/05/18 02:37:59;;;;;;;6.40;4.00;;;;;;;7.16;100.00;102808.63;5016135;28;20489;-40
2023/05/18 02:40:27;;;;;;;6.03;3.60;;;;;;;7.11;100.00;102812.59;5016670;28;20437;-39
2023/05/18 02:42:54;;;;;;;7.70;4.00;;;;;;;7.08;100.00;102815.47;5015591;28;20484;-39
2023/05/18 02:45:22;;;;;;;12.63;4.20;;;;;;;7.06;100.00;102814.78;5016767;28;20436;-40
2023/05/18 02:47:50;;;;;;;4.30;4.00;;;;;;;7.05;100.00;102821.03;5015185;28;20464;-39
2023/05/18 02:50:18;;;;;;;5.47;3.90;;;;;;;7.13;100.00;102818.63;5018118;28;20519;-41
2023/05/18 02:52:48;;;;;;;5.03;4.43;;;;;;;7.14;100.00;102817.63;5019340;28;20483;-40
2023/05/18 02:55:17;;;;;;;5.47;4.90;;;;;;;7.17;100.00;102825.34;5020689;28;20473;-39
2023/05/18 02:57:46;;;;;;;5.03;4.07;;;;;;;7.19;100.00;102823.44;5020114;28;20727;-39
2023/05/18 03:00:15;;;;;;;4.27;3.67;;;;;;;7.20;100.00;102811.84;5019942;28;20931;-40
2023/05/18 03:02:47;;;;;;;11.40;5.10;;;;;;;7.23;100.00;102820.41;5018720;28;20759;-39
2023/05/18 03:05:17;;;;;;;6.60;3.80;;;;;;;7.27;100.00;102823.66;5018750;28;20471;-39
2023/05/18 03:07:49;;;;;;;5.90;3.97;;;;;;;7.28;100.00;102820.03;5018898;28;20496;-39
2023/05/18 03:10:19;;;;;;;10.53;4.43;;;;;;;7.31;100.00;102818.94;5019592;28;20443;-42
2023/05/18 03:12:48;;;;;;;9.53;4.37;;;;;;;7.34;100.00;102818.69;5020080;28;20480;-42
2023/05/18 03:15:15;;;;;;;5.40;4.57;;;;;;;7.39;100.00;102812.03;5019982;28;20764;-39
2023/05/18 03:17:43;;;;;;;5.03;4.27;;;;;;;7.41;100.00;102818.06;5017443;28;20457;-40
2023/05/18 03:20:14;;;;;;;6.13;3.80;;;;;;;7.42;100.00;102816.25;5019289;28;20468;-39
2023/05/18 03:22:42;;;;;;;11.60;4.83;;;;;;;7.44;100.00;102815.16;5018889;28;20543;-41
2023/05/18 03:25:10;;;;;;;6.00;4.07;;;;;;;7.46;100.00;102815.03;5020413;28;21029;-39
2023/05/18 03:27:39;;;;;;;8.47;4.90;;;;;;;7.51;100.00;102812.84;5018905;28;20461;-39
2023/05/18 03:30:08;;;;;;;8.73;4.57;;;;;;;7.48;100.00;102816.59;4980941;28;20797;-39
2023/05/18 03:32:36;;;;;;;7.43;4.77;;;;;;;7.44;100.00;102819.63;4979977;28;20541;-39
2023/05/18 03:35:05;;;;;;;9.27;4.00;;;;;;;7.52;100.00;102825.16;4979019;28;20911;-39
2023/05/18 03:37:33;;;;;;;5.33;4.40;;;;;;;7.52;100.00;102826.00;4980326;28;20474;-39
2023/05/18 03:40:10;;;;;;;10.63;5.57;;;;;;;7.53;100.00;102830.31;4979332;28;20497;-40
2023/05/18 03:42:40;;;;;;;8.40;4.33;;;;;;;7.50;100.00;102833.22;4978907;28;20987;-42
2023/05/18 03:45:09;;;;;;;14.50;4.70;;;;;;;7.58;100.00;102833.47;4979094;28;20449;-39
2023/05/18 03:47:38;;;;;;;6.70;4.37;;;;;;;7.54;100.00;102825.88;4979619;28;20459;-40
2023/05/18 03:50:07;;;;;;;4.50;3.53;;;;;;;7.57;100.00;102826.47;4972068;28;20526;-39
2023/05/18 03:52:35;;;;;;;9.13;4.23;;;;;;;7.61;100.00;102827.06;4978702;28;20463;-39
2023/05/18 03:55:04;;;;;;;5.13;4.10;;;;;;;7.64;100.00;102837.44;4979678;28;20496;-41
2023/05/18 03:57:33;;;;;;;9.13;4.40;;;;;;;7.69;100.00;102836.06;4979718;28;20423;-42
2023/05/18 04:00:07;;;;;;;7.33;4.17;;;;;;;7.75;100.00;102837.38;4979793;28;20467;-39
2023/05/18 04:02:36;;;;;;;7.50;4.10;;;;;;;7.77;100.00;102838.06;4977986;28;20482;-39
2023/05/18 04:05:05;;;;;;;4.50;3.50;;;;;;;7.70;100.00;102843.06;4979995;28;20529;-39
2023/05/18 04:07:33;;;;;;;12.33;3.40;;;;;;;7.79;100.00;102846.78;4978740;28;20477;-41
2023/05/18 04:10:01;;;;;;;9.40;4.00;;;;;;;7.85;100.00;102850.72;4979964;28;20454;-40
2023/05/18 04:12:29;;;;;;;10.90;4.53;;;;;;;7.93;100.00;102859.75;4978702;28;20482;-39
2023/05/18 04:14:57;;;;;;;5.83;3.70;;;;;;;8.03;100.00;102851.84;4980069;28;20439;-39
2023/05/18 04:17:27;;;;;;;11.37;4.63;;;;;;;8.09;100.00;102849.53;4979444;28;20451;-39
2023/05/18 04:19:55;;;;;;;9.67;4.17;;;;;;;8.10;100.00;102853.84;4977756;28;20471;-40
2023/05/18 04:22:23;;;;;;;10.67;3.90;;;;;;;8.20;100.00;102861.91;4978348;28;20833;-41
2023/05/18 04:24:53;;;;;;;7.83;4.37;;;;;;;8.17;100.00;102857.69;4978659;28;20423;-39
2023/05/18 04:27:21;;;;;;;4.80;3.27;;;;;;;8.22;100.00;102860.78;5009813;28;20417;-40
2023/05/18 04:29:50;;;;;;;4.07;2.93;;;;;;;8.30;100.00;102863.66;5016642;28;20515;-40
2023/05/18 04:32:19;;;;;;;7.13;3.43;;;;;;;8.23;100.00;102867.81;5016391;28;20453;-41
2023/05/18 04:34:50;;;;;;;5.10;3.80;;;;;;;8.24;100.00;102866.81;5017893;28;20784;-39
2023/05/18 04:37:18;;;;;;;10.13;4.03;;;;;;;8.31;100.00;102869.84;5018105;28;20469;-39
2023/05/18 04:39:46;;;;;;;9.50;4.37;;;;;;;8.33;100.00;102874.03;5017214;28;20469;-39
2023/05/18 04:42:17;;;;;;;14.53;3.80;;;;;;;8.43;100.00;102884.75;5017176;28;20641;-39
2023/05/18 04:44:47;;;;;;;10.83;4.30;;;;;;;8.43;100.00;102875.91;5018034;28;20791;-39
2023/05/18 04:47:15;;;;;;;6.37;3.70;;;;;;;8.60;100.00;102878.00;5016829;28;20452;-39
2023/05/18 04:49:43;;;;;;;5.60;4.10;;;;;;;8.62;100.00;102884.88;5018387;28;20469;-39
2023/05/18 04:52:13;;;;;;;4.73;3.77;;;;;;;8.80;100.00;102882.44;5017332;28;20445;-39
2023/05/18 04:54:42;;;;;;;9.13;4.30;;;;;;;8.84;100.00;102879.38;5017911;28;20487;-40
2023/05/18 04:57:10;;;;;;;6.57;4.20;;;;;;;8.87;100.00;102881.75;5017898;28;20476;-40
2023/05/18 04:59:40;;;;;;;5.80;3.97;;;;;;;8.90;100.00;102884.16;5016101;28;20472;-41
2023/05/18 05:02:08;;;;;;;8.43;3.57;;;;;;;8.96;100.00;102889.94;5016706;28;21135;-40
2023/05/18 05:04:36;;;;;;;4.47;4.03;;;;;;;8.91;100.00;102898.31;5016846;28;20480;-42
2023/05/18 05:07:04;;;;;;;8.93;3.70;;;;;;;8.95;100.00;102891.75;5016619;28;20426;-40
2023/05/18 05:09:34;;;;;;;4.67;3.47;;;;;;;8.99;100.00;102898.47;5015637;28;20464;-39
2023/05/18 05:12:02;;;;;;;6.70;3.37;;;;;;;9.19;100.00;102888.75;5016759;28;20519;-40
2023/05/18 05:14:31;;;;;;;12.43;3.80;;;;;;;9.24;100.00;102889.19;5016601;28;20441;-40
2023/05/18 05:17:01;;;;;;;6.50;3.90;;;;;;;9.30;100.00;102889.47;5017197;28;20472;-40
2023/05/18 05:19:29;;;;;;;8.47;3.20;;;;;;;9.35;100.00;102887.25;5016979;28;20538;-40
2023/05/18 05:22:00;;;;;;;7.73;4.73;;;;;;;9.55;100.00;102887.28;5016043;28;20445;-40
2023/05/18 05:24:30;;;;;;;5.47;3.57;;;;;;;9.67;100.00;102897.69;5016635;28;20425;-40
2023/05/18 05:27:06;;;;;;;7.70;4.30;;;;;;;9.84;98.44;102886.34;5016648;28;20850;-39
2023/05/18 05:29:34;;;;;;;8.43;4.13;;;;;;;10.42;96.27;102897.00;5015425;28;20460;-40
2023/05/18 05:32:04;;;;;;;7.63;4.10;;;;;;;10.44;93.41;102898.53;5017171;28;21016;-40
2023/05/18 05:34:32;;;;;;;4.43;4.03;;;;;;;10.51;87.87;102899.63;5016494;28;20480;-44
2023/05/18 05:37:01;;;;;;;4.53;4.07;;;;;;;10.79;89.62;102900.53;5015465;28;20555;-45
2023/05/18 05:39:32;;;;;;;5.63;3.80;;;;;;;10.74;85.96;102902.81;5015186;28;20491;-40
2023/05/18 05:42:06;;;;;;;4.00;3.60;;;;;;;10.93;86.49;102897.41;5015429;28;20641;-41
2023/05/18 05:44:34;;;;;;;12.70;4.60;;;;;;;10.99;84.76;102904.81;5015920;28;20421;-40
2023/05/18 05:47:03;;;;;;;7.70;3.87;;;;;;;11.17;80.92;102898.72;5017239;28;20456;-40
2023/05/18 05:49:31;;;;;;;4.30;3.90;;;;;;;11.39;82.58;102911.66;5015272;28;20555;-45
2023/05/18 05:52:02;;;;;;;8.47;4.03;;;;;;;11.36;76.29;102911.97;5015265;28;20457;-40
2023/05/18 05:54:30;;;;;;;5.60;3.87;;;;;;;11.60;76.96;102904.22;5014665;28;20776;-43
2023/05/18 05:56:58;;;;;;;5.40;3.50;;;;;;;12.56;78.26;102904.28;5015126;28;21060;-40
2023/05/18 05:59:28;;;;;;;6.33;3.40;;;;;;;12.34;74.11;102910.13;5015781;28;20464;-41
2023/05/18 06:01:57;;;;;;;8.23;3.00;;;;;;;12.22;72.04;102916.69;5015397;28;20453;-42
2023/05/18 06:04:25;;;;;;;4.80;3.60;;;;;;;12.30;67.17;102911.44;5014406;28;20417;-40
2023/05/18 06:06:54;;;;;;;9.33;3.27;;;;;;;12.71;66.75;102907.19;5015523;28;20425;-42
2023/05/18 06:09:22;;;;;;;4.77;4.37;;;;;;;12.23;68.19;102905.03;5014172;28;20542;-40
2023/05/18 06:11:51;;;;;;;4.17;3.77;;;;;;;12.31;70.59;102909.56;5017604;28;20449;-40
2023/05/18 06:14:20;;;;;;;4.77;3.93;;;;;;;14.25;65.74;102909.34;5016612;28;20457;-42
2023/05/18 06:16:51;;;;;;;5.43;3.80;;;;;;;15.61;57.48;102919.09;5015784;28;20484;-40
2023/05/18 06:19:19;;;;;;;7.03;3.97;;;;;;;15.67;56.15;102908.47;5014647;28;20464;-44
2023/05/18 06:21:48;;;;;;;7.37;4.40;;;;;;;16.62;55.07;102901.66;5015259;28;20469;-41
2023/05/18 06:24:17;;;;;;;7.50;3.90;;;;;;;17.36;52.05;102915.94;5017204;28;20428;-41
2023/05/18 06:26:45;;;;;;;7.90;4.10;;;;;;;17.59;51.52;102917.50;5009839;28;20430;-41
2023/05/18 06:29:14;;;;;;;8.60;4.03;;;;;;;18.58;51.14;102915.75;5018730;28;20452;-41
2023/05/18 06:31:44;;;;;;;4.50;3.53;;;;;;;19.20;44.81;102915.75;5019954;28;20822;-41
2023/05/18 06:34:16;;;;;;;10.97;4.47;;;;;;;19.55;46.88;102914.66;5020276;28;20428;-41
2023/05/18 06:36:45;;;;;;;4.47;4.00;;;;;;;20.05;45.21;102913.31;5018784;28;20476;-40
2023/05/18 06:41:54;;;;;;;6.40;3.70;;;;;;;19.70;43.37;102917.19;5962014;23;21350;-42
2023/05/18 06:44:22;;;;;;;8.97;4.00;;;;;;;18.49;41.21;102919.63;5021527;28;20534;-45
2023/05/18 06:46:50;;;;;;;4.33;3.50;;;;;;;18.97;42.18;102920.59;5041541;28;20664;-42
2023/05/18 06:49:19;;;;;;;6.00;3.50;;;;;;;18.87;42.81;102926.38;5040878;28;20987;-44
2023/05/18 06:51:47;;;;;;;7.83;3.83;;;;;;;19.43;44.20;102920.84;5040266;28;20512;-42
2023/05/18 06:54:15;;;;;;;6.77;3.60;;;;;;;18.33;45.85;102919.91;5040549;28;20435;-42
2023/05/18 06:56:42;;;;;;;5.20;3.73;;;;;;;19.31;41.29;102921.41;5039972;28;21014;-42
2023/05/18 06:59:10;;;;;;;6.20;4.43;;;;;;;18.98;43.13;102923.13;5041948;28;20522;-42
2023/05/18 07:01:38;;;;;;;5.07;3.50;;;;;;;19.17;43.65;102922.41;5040049;28;20466;-43
2023/05/18 07:04:06;;;;;;;4.47;3.50;;;;;;;20.40;44.33;102917.50;5038284;28;20987;-42
2023/05/18 07:06:36;;;;;;;7.10;4.00;;;;;;;20.20;38.63;102913.94;5040757;28;20467;-47
2023/05/18 07:09:04;;;;;;;7.90;3.90;;;;;;;20.72;38.65;102915.84;5040889;28;20428;-43
2023/05/18 07:11:32;;;;;;;4.07;3.77;;;;;;;20.35;40.28;102916.47;5039867;28;20442;-44
2023/05/18 07:13:59;;;;;;;7.00;4.13;;;;;;;19.76;38.76;102917.22;5038477;28;20468;-45
2023/05/18 07:16:27;;;;;;;4.10;3.60;;;;;;;19.72;39.33;102915.97;5028331;28;20480;-42
2023/05/18 07:18:56;;;;;;;7.53;3.60;;;;;;;19.11;40.57;102925.91;5027296;28;20440;-43
2023/05/18 07:21:25;;;;;;;4.87;3.33;;;;;;;18.73;42.57;102925.44;5038374;28;20574;-45
2023/05/18 07:23:54;;;;;;;6.53;3.30;;;;;;;18.18;41.55;102926.25;5037414;28;20463;-42
2023/05/18 07:26:22;;;;;;;8.43;3.50;;;;;;;17.48;42.39;102922.53;5037460;28;20505;-48
2023/05/18 07:28:50;;;;;;;5.93;4.23;;;;;;;17.63;42.94;102928.75;5038709;28;20427;-45
2023/05/18 07:31:20;;;;;;;7.40;4.17;;;;;;;17.73;42.45;102931.16;5038580;28;20439;-45
2023/05/18 07:33:48;;;;;;;6.17;3.90;;;;;;;17.91;41.83;102920.75;5037122;28;20491;-41
2023/05/18 07:36:16;;;;;;;6.80;4.60;;;;;;;17.93;42.54;102924.94;5037354;28;20446;-46
2023/05/18 07:38:44;;;;;;;4.83;4.30;;;;;;;17.95;43.48;102930.16;5036326;28;20867;-44
2023/05/18 07:41:13;;;;;;;6.87;3.70;;;;;;;18.09;43.48;102935.50;5038476;28;20579;-42
2023/05/18 07:43:41;;;;;;;6.80;3.30;;;;;;;18.34;42.40;102929.69;5037757;28;20495;-42
2023/05/18 07:46:09;;;;;;;4.50;3.57;;;;;;;18.14;41.84;102934.91;5039040;28;20470;-40
2023/05/18 07:48:37;;;;;;;7.47;4.00;;;;;;;17.99;43.11;102934.97;5039058;28;20992;-40
2023/05/18 07:51:08;;;;;;;7.17;3.70;;;;;;;18.00;42.10;102935.81;5040838;28;20853;-42
2023/05/18 07:53:36;;;;;;;5.37;4.00;;;;;;;18.26;43.79;102936.06;5039107;28;20471;-43
2023/05/18 07:56:05;;;;;;;7.87;4.03;;;;;;;18.36;42.43;102930.31;5039195;28;20435;-44
2023/05/18 07:58:34;;;;;;;8.07;4.13;;;;;;;18.11;41.87;102930.72;5037204;28;20463;-43
2023/05/18 08:01:02;;;;;;;6.17;3.90;;;;;;;17.86;43.69;102937.53;5037844;28;20434;-44
2023/05/18 08:03:30;;;;;;;8.07;4.17;;;;;;;18.28;43.64;102927.78;5036900;28;20471;-46
2023/05/18 08:05:59;;;;;;;8.50;3.60;;;;;;;17.73;43.83;102932.00;5038134;28;20428;-42
2023/05/18 08:08:27;;;;;;;7.33;3.43;;;;;;;17.91;44.21;102929.72;5039091;28;20455;-47
2023/05/18 08:10:55;;;;;;;6.67;3.90;;;;;;;18.09;43.89;102929.25;5039066;28;20435;-41
2023/05/18 08:13:22;;;;;;;5.47;4.17;;;;;;;18.40;43.63;102923.50;5037601;28;20535;-44
2023/05/18 08:15:51;;;;;;;8.93;4.97;;;;;;;17.58;44.13;102934.75;5039077;28;20458;-41
2023/05/18 08:18:37;;;;;;;5.10;4.00;;;;;;;17.17;44.30;102936.25;5038606;28;20479;-44
2023/05/18 08:21:07;;;;;;;10.10;4.00;;;;;;;17.02;44.79;102936.25;5038667;28;20941;-42
2023/05/18 08:23:34;;;;;;;3.93;3.40;;;;;;;16.78;45.25;102933.84;5038481;28;20476;-44
2023/05/18 08:26:03;;;;;;;5.90;4.17;;;;;;;17.41;45.28;102932.41;5034287;28;20468;-46
2023/05/18 08:28:31;;;;;;;5.03;4.20;;;;;;;17.72;45.06;102935.72;5034175;28;20436;-42
2023/05/18 08:31:00;;;;;;;4.53;4.13;;;;;;;18.23;45.41;102934.59;5038980;28;20558;-43
2023/05/18 08:33:28;;;;;;;3.93;3.63;;;;;;;18.43;43.70;102934.75;5035655;28;20997;-40
2023/05/18 08:35:56;;;;;;;7.27;4.67;;;;;;;18.61;44.24;102931.59;5038442;28;20428;-45
2023/05/18 08:38:23;;;;;;;5.67;4.13;;;;;;;18.71;43.37;102922.13;5037737;28;20905;-46
2023/05/18 08:40:58;;;;;;;5.23;4.03;;;;;;;18.91;42.82;102929.50;5038451;28;20523;-41
2023/05/18 08:43:32;;;;;;;11.60;4.20;;;;;;;17.60;42.08;102937.22;5037400;28;20467;-41
2023/05/18 08:46:06;;;;;;;6.67;4.37;;;;;;;17.98;42.07;102927.88;5038846;28;20430;-41
2023/05/18 08:48:36;;;;;;;4.17;3.73;;;;;;;17.87;43.90;102931.09;5037715;28;20454;-44
2023/05/18 08:51:06;;;;;;;4.97;3.80;;;;;;;17.71;44.75;102925.97;5037464;28;20518;-46
2023/05/18 08:53:37;;;;;;;5.70;4.63;;;;;;;17.48;44.07;102930.63;5037005;28;20563;-43
2023/05/18 08:56:06;;;;;;;7.57;4.23;;;;;;;17.35;43.94;102931.28;5037290;28;20432;-41
2023/05/18 08:58:36;;;;;;;3.80;3.50;;;;;;;17.51;44.96;102930.25;5038078;28;20567;-45
2023/05/18 09:01:05;;;;;;;11.17;4.00;;;;;;;17.58;45.38;102920.41;5038328;28;21004;-46
2023/05/18 09:03:33;;;;;;;10.67;4.57;;;;;;;17.64;44.93;102928.59;5035238;28;20482;-41
2023/05/18 09:06:03;;;;;;;5.37;3.83;;;;;;;17.78;43.89;102934.09;5037764;28;20443;-41
2023/05/18 09:08:31;;;;;;;5.20;3.20;;;;;;;17.55;42.08;102929.72;5036727;28;20475;-42
2023/05/18 09:11:02;;;;;;;4.77;4.10;;;;;;;17.41;43.69;102927.03;5038384;28;20459;-46
2023/05/18 09:13:30;;;;;;;6.93;3.70;;;;;;;17.70;43.31;102921.59;5036210;28;20477;-43
2023/05/18 09:15:58;;;;;;;4.10;3.70;;;;;;;17.88;42.95;102924.69;5037819;28;20511;-48
2023/05/18 09:18:27;;;;;;;7.03;4.00;;;;;;;17.54;41.49;102929.88;5037370;28;21000;-46
2023/05/18 09:20:55;;;;;;;5.93;3.60;;;;;;;17.25;42.58;102925.38;5037388;28;20440;-43
2023/05/18 09:23:23;;;;;;;5.63;4.47;;;;;;;17.17;42.55;102918.19;5036055;28;20488;-44
2023/05/18 09:25:52;;;;;;;5.90;3.60;;;;;;;17.17;43.90;102921.94;5036559;28;20933;-44
2023/05/18 09:28:27;;;;;;;8.40;4.20;;;;;;;17.37;44.08;102914.94;5037741;28;20459;-43
2023/05/18 09:30:55;;;;;;;9.67;4.23;;;;;;;17.47;45.37;102920.88;5037362;28;20546;-41
2023/05/18 09:33:24;;;;;;;4.33;3.93;;;;;;;17.58;44.52;102912.31;5034575;28;20489;-43
2023/05/18 09:35:53;;;;;;;4.50;3.70;;;;;;;18.22;43.37;102905.06;5037302;28;20439;-41
2023/05/18 09:38:22;;;;;;;5.83;3.70;;;;;;;18.36;42.94;102898.75;5036559;28;20478;-43
2023/05/18 09:40:50;;;;;;;4.20;3.77;;;;;;;18.25;43.50;102904.66;5036996;28;20504;-42
2023/05/18 09:43:18;;;;;;;6.70;4.13;;;;;;;17.96;42.30;102886.75;5036448;28;20505;-41
2023/05/18 09:45:48;;;;;;;5.00;3.53;;;;;;;18.13;42.92;102898.97;5036866;28;20436;-40
2023/05/18 09:48:16;;;;;;;5.87;4.07;;;;;;;18.11;43.85;102903.72;5036991;28;20432;-43
2023/05/18 09:50:45;;;;;;;10.87;4.60;;;;;;;18.03;44.87;102906.56;5036720;28;20504;-40
2023/05/18 09:53:14;;;;;;;7.73;4.00;;;;;;;17.41;42.48;102906.25;5035624;28;20530;-44
2023/05/18 09:55:46;;;;;;;6.40;4.47;;;;;;;17.05;44.15;102905.41;5036499;28;20438;-43
2023/05/18 09:58:14;;;;;;;4.27;3.60;;;;;;;16.78;45.38;102908.75;5036805;28;20491;-42
2023/05/18 10:00:43;;;;;;;4.50;4.10;;;;;;;16.54;45.32;102909.84;5036568;28;20436;-45
2023/05/18 10:03:19;;;;;;;7.43;4.90;;;;;;;16.90;45.34;102902.72;5035055;28;20480;-45
2023/05/18 10:05:46;;;;;;;9.40;4.10;;;;;;;16.64;44.52;102904.16;5020146;28;20431;-40
2023/05/18 10:08:16;;;;;;;8.20;4.70;;;;;;;16.77;43.64;102901.66;5036942;28;20436;-49
2023/05/18 10:10:46;;;;;;;8.73;4.40;;;;;;;17.09;44.84;102904.00;5036761;28;20420;-43
2023/05/18 10:13:16;;;;;;;4.23;3.57;;;;;;;16.92;44.07;102905.22;5036116;28;20642;-46
2023/05/18 10:15:49;;;;;;;4.33;3.97;;;;;;;16.67;47.40;102904.63;5016624;28;20431;-42
2023/05/18 10:18:22;;;;;;;4.23;3.40;;;;;;;17.20;44.81;102910.78;5036433;28;20853;-42
2023/05/18 10:20:51;;;;;;;9.00;4.37;;;;;;;17.12;46.91;102909.84;5037140;28;20428;-42
2023/05/18 10:23:21;;;;;;;5.00;4.03;;;;;;;17.42;45.49;102897.16;5034624;28;20500;-40
2023/05/18 10:25:51;;;;;;;7.47;4.43;;;;;;;17.75;45.36;102900.25;5036378;28;20432;-43
2023/05/18 10:28:24;;;;;;;5.53;3.93;;;;;;;18.14;44.08;102903.34;5035395;28;20432;-41
2023/05/18 10:30:54;;;;;;;5.10;3.90;;;;;;;18.39;44.63;102894.81;5036434;28;20440;-43
2023/05/18 10:33:24;;;;;;;4.33;3.57;;;;;;;18.50;44.08;102902.41;5034574;28;20840;-40
2023/05/18 10:35:57;;;;;;;4.63;3.60;;;;;;;18.54;41.87;102906.41;5036311;28;20440;-41
2023/05/18 10:38:27;;;;;;;4.27;3.87;;;;;;;18.55;43.19;102898.09;5036963;28;20423;-42
2023/05/18 10:40:58;;;;;;;7.63;3.70;;;;;;;18.78;43.37;102903.25;5036121;28;20436;-41
2023/05/18 10:43:28;;;;;;;4.07;3.67;;;;;;;19.11;42.80;102895.31;5034802;28;20829;-47
2023/05/18 10:45:57;;;;;;;4.30;3.87;;;;;;;18.97;41.39;102898.97;5036520;28;20467;-43
2023/05/18 10:48:26;;;;;;;4.33;3.97;;;;;;;19.02;41.87;102901.91;5036222;28;20905;-43
2023/05/18 10:50:55;;;;;;;4.10;3.83;;;;;;;19.24;41.67;102898.91;5036098;28;20436;-41
2023/05/18 10:53:25;;;;;;;4.50;4.10;;;;;;;19.31;41.77;102901.63;5034746;28;20475;-47
2023/05/18 10:55:55;;;;;;;9.80;5.07;;;;;;;19.22;42.20;102894.72;5037353;28;20424;-41
2023/05/18 10:58:26;;;;;;;10.60;4.23;;;;;;;18.89;42.15;102893.72;5035762;28;20499;-42
2023/05/18 11:00:57;;;;;;;7.20;4.80;;;;;;;19.05;42.66;102888.84;5035632;28;20440;-45
2023/05/18 11:03:25;;;;;;;7.27;4.20;;;;;;;19.25;41.73;102894.31;5034096;28;20547;-45
2023/05/18 11:06:05;;;;;;;5.60;4.50;;;;;;;19.28;41.81;102893.94;5035675;28;20439;-41
2023/05/18 11:08:33;;;;;;;6.47;4.20;;;;;;;19.47;42.60;102893.22;5035784;28;20546;-43
2023/05/18 11:11:06;;;;;;;4.53;4.13;;;;;;;19.48;41.88;102894.84;5037961;28;20921;-44
2023/05/18 11:13:34;;;;;;;11.97;4.70;;;;;;;19.33;42.53;102883.31;5037829;28;20471;-44
2023/05/18 11:16:07;;;;;;;18.83;4.90;;;;;;;19.27;41.45;102884.97;5038423;28;20509;-46
2023/05/18 11:18:37;;;;;;;4.80;3.97;;;;;;;19.47;42.76;102884.25;5033732;28;20507;-44
2023/05/18 11:21:21;;;;;;;14.87;5.30;;;;;;;19.61;43.35;102888.66;5033754;28;20435;-46
2023/05/18 11:24:24;;;;;;;5.13;4.47;;;;;;;19.68;42.51;102881.38;5032381;28;20499;-49
2023/05/18 11:26:55;;;;;;;4.17;3.77;;;;;;;19.77;42.05;102878.25;5028759;28;20439;-46
2023/05/18 11:29:24;;;;;;;7.70;4.20;;;;;;;18.99;39.41;102886.94;5018123;28;20793;-48
2023/05/18 11:31:53;;;;;;;11.30;4.53;;;;;;;18.76;40.57;102886.38;5032417;28;20494;-44
2023/05/18 11:34:40;;;;;;;6.03;4.50;;;;;;;18.93;42.88;102890.44;5032831;28;20436;-45
2023/05/18 11:37:08;;;;;;;7.43;4.27;;;;;;;19.23;41.41;102883.69;5033409;28;20435;-45
2023/05/18 11:39:37;;;;;;;7.63;4.50;;;;;;;19.19;42.51;102884.31;5033397;28;20853;-45